Time;durP1;ratioP1;P1;durP2;ratioP2;P2;SDS_P1;SDS_P2;PMS_P1;PMS_P2;Temp;Humidity;BMP_temperature;BMP_pressure;BME280_temperature;BME280_humidity;BME280_pressure;Samples;Min_cycle;Max_cycle;Signal;HPM_P1;HPM_P2
2021/09/07 00:02:00;;;;;;;53.33;49.63;;;;;;;18.05;100.00;102317.33;1971682;73;30946;-76
2021/09/07 00:07:24;;;;;;;51.63;47.73;;;;;;;18.03;100.00;102316.20;1971772;73;30970;-75
2021/09/07 00:12:49;;;;;;;45.80;42.60;;;;;;;18.14;100.00;102305.68;1971817;73;31054;-77
2021/09/07 00:18:14;;;;;;;49.97;46.20;;;;;;;17.96;100.00;102310.12;1972354;73;31539;-74
2021/09/07 00:23:39;;;;;;;52.83;48.90;;;;;;;17.68;100.00;102305.36;1972155;73;31042;-75
2021/09/07 00:29:03;;;;;;;53.53;49.27;;;;;;;17.94;100.00;102305.91;1971889;73;31016;-77
2021/09/07 00:34:28;;;;;;;50.13;46.27;;;;;;;17.71;100.00;102303.39;1971793;73;31045;-77
2021/09/07 00:39:53;;;;;;;52.87;49.07;;;;;;;17.68;100.00;102309.58;1971280;73;30958;-74
2021/09/07 00:45:17;;;;;;;56.17;51.97;;;;;;;17.78;100.00;102310.05;1971842;73;31528;-77
2021/09/07 00:50:41;;;;;;;53.17;49.07;;;;;;;17.94;100.00;102307.31;1971758;73;31101;-75
2021/09/07 00:56:07;;;;;;;52.77;48.83;;;;;;;17.75;100.00;102307.27;1972119;73;30967;-73
2021/09/07 01:01:33;;;;;;;51.73;47.90;;;;;;;17.60;100.00;102303.20;1971776;73;31042;-76
2021/09/07 01:07:00;;;;;;;55.20;51.00;;;;;;;17.61;100.00;102304.89;1971874;73;31019;-77
2021/09/07 01:12:24;;;;;;;52.73;48.80;;;;;;;17.64;100.00;102293.05;1971721;73;31024;-77
2021/09/07 01:17:49;;;;;;;50.87;47.17;;;;;;;17.62;100.00;102293.92;1971750;73;31032;-76
2021/09/07 01:23:13;;;;;;;50.33;46.80;;;;;;;17.33;100.00;102296.70;1971825;73;31013;-76
2021/09/07 01:28:38;;;;;;;46.43;43.17;;;;;;;17.03;100.00;102298.41;1971697;73;31015;-75
2021/09/07 01:34:03;;;;;;;47.43;43.97;;;;;;;17.13;100.00;102293.52;1971731;73;31045;-77
2021/09/07 01:39:28;;;;;;;51.33;47.47;;;;;;;17.32;100.00;102290.83;1972140;73;31122;-74
2021/09/07 01:44:53;;;;;;;46.87;43.57;;;;;;;17.20;100.00;102291.80;1971871;73;31430;-77
2021/09/07 01:50:19;;;;;;;48.33;45.03;;;;;;;17.07;100.00;102286.27;1971755;73;31051;-77
2021/09/07 01:55:44;;;;;;;51.20;47.60;;;;;;;16.91;100.00;102284.72;1971895;73;31472;-76
2021/09/07 02:01:09;;;;;;;47.40;44.10;;;;;;;16.70;100.00;102282.64;1971795;73;30956;-77
2021/09/07 02:06:34;;;;;;;47.47;43.93;;;;;;;16.68;100.00;102289.69;1971714;73;31094;-76
2021/09/07 02:11:58;;;;;;;47.47;44.17;;;;;;;16.72;100.00;102291.63;1971945;73;31438;-77
2021/09/07 02:17:24;;;;;;;49.33;45.77;;;;;;;16.83;100.00;102289.56;1971927;73;33457;-76
2021/09/07 02:22:49;;;;;;;49.00;45.43;;;;;;;16.85;100.00;102285.91;1960844;71;32994;-77
2021/09/07 02:28:20;;;;;;;48.13;44.43;;;;;;;16.81;100.00;102294.64;1971766;73;30965;-76
2021/09/07 02:33:45;;;;;;;52.47;48.33;;;;;;;16.65;100.00;102295.86;1971966;73;33429;-76
2021/09/07 02:39:11;;;;;;;52.17;48.37;;;;;;;16.47;100.00;102286.15;1971785;73;31451;-76
2021/09/07 02:44:39;;;;;;;49.90;46.50;;;;;;;16.10;100.00;102283.81;1972112;73;32935;-75
2021/09/07 02:50:03;;;;;;;46.27;43.10;;;;;;;15.99;100.00;102283.59;1972384;73;31037;-74
2021/09/07 02:55:28;;;;;;;47.73;44.23;;;;;;;15.93;100.00;102280.52;1971841;73;33190;-76
2021/09/07 03:00:52;;;;;;;49.37;45.93;;;;;;;16.03;100.00;102273.48;1971746;73;32988;-76
2021/09/07 03:06:17;;;;;;;50.03;46.50;;;;;;;16.12;100.00;102273.16;1972121;72;33076;-74
2021/09/07 03:11:41;;;;;;;51.97;48.20;;;;;;;16.17;100.00;102275.10;1971712;73;30981;-77
2021/09/07 03:17:06;;;;;;;50.97;47.07;;;;;;;16.24;100.00;102255.42;1971756;73;30999;-77
2021/09/07 03:22:32;;;;;;;51.03;47.33;;;;;;;16.30;100.00;102257.65;1971870;73;33574;-76
2021/09/07 03:27:56;;;;;;;51.33;47.67;;;;;;;16.33;100.00;102257.06;1971850;73;31425;-77
2021/09/07 03:33:20;;;;;;;50.73;47.03;;;;;;;16.15;100.00;102261.36;1971981;73;31498;-76
2021/09/07 03:38:45;;;;;;;51.93;48.13;;;;;;;16.24;100.00;102257.39;1972132;73;32977;-74
2021/09/07 03:44:15;;;;;;;52.53;48.63;;;;;;;16.16;100.00;102247.63;1971715;73;31015;-77
2021/09/07 03:49:40;;;;;;;50.93;46.83;;;;;;;16.21;100.00;102250.41;1971754;72;32987;-75
2021/09/07 03:55:07;;;;;;;50.93;47.07;;;;;;;16.19;100.00;102243.39;1971910;73;31030;-76
2021/09/07 04:00:31;;;;;;;52.17;48.07;;;;;;;16.21;100.00;102236.95;1952340;73;39660;-75
2021/09/07 04:05:56;;;;;;;51.63;47.67;;;;;;;16.01;100.00;102243.48;1971801;73;33004;-76
2021/09/07 04:11:23;;;;;;;50.57;46.90;;;;;;;15.96;100.00;102234.28;1972141;73;32910;-75
2021/09/07 04:16:47;;;;;;;50.17;46.67;;;;;;;15.80;100.00;102242.74;1971683;73;30966;-75
2021/09/07 04:22:12;;;;;;;50.53;47.07;;;;;;;15.73;100.00;102231.58;1953512;73;32941;-76
2021/09/07 04:27:35;;;;;;;50.40;46.80;;;;;;;15.73;100.00;102237.17;1972157;73;32931;-74
2021/09/07 04:33:01;;;;;;;49.67;46.17;;;;;;;15.75;100.00;102235.75;1971870;72;33510;-76
2021/09/07 04:38:25;;;;;;;48.93;45.33;;;;;;;15.77;100.00;102243.33;1971562;73;32955;-77
2021/09/07 04:43:50;;;;;;;48.83;45.27;;;;;;;15.88;100.00;102235.70;1972056;73;33396;-77
2021/09/07 04:49:14;;;;;;;52.03;48.13;;;;;;;16.15;100.00;102245.09;1971909;73;30966;-76
2021/09/07 04:54:39;;;;;;;55.83;51.73;;;;;;;16.16;100.00;102246.78;1971914;73;33444;-75
2021/09/07 05:00:04;;;;;;;53.50;49.43;;;;;;;16.00;100.00;102247.44;1971747;73;32983;-77
2021/09/07 05:05:32;;;;;;;51.43;47.53;;;;;;;16.01;100.00;102242.08;1971780;73;32966;-75
2021/09/07 05:10:56;;;;;;;50.33;46.57;;;;;;;16.05;100.00;102240.37;1971685;72;33034;-76
2021/09/07 05:16:21;;;;;;;50.17;46.67;;;;;;;16.11;100.00;102239.23;1971932;73;30965;-77
2021/09/07 05:21:45;;;;;;;50.63;47.03;;;;;;;15.78;100.00;102235.77;1958926;73;33087;-77
2021/09/07 05:27:10;;;;;;;50.10;46.37;;;;;;;15.49;100.00;102234.97;1971732;73;32906;-76
2021/09/07 05:32:34;;;;;;;47.97;44.67;;;;;;;15.37;100.00;102242.84;1971836;73;33682;-77
2021/09/07 05:37:59;;;;;;;55.43;51.37;;;;;;;15.22;100.00;102238.70;1972105;73;32982;-73
2021/09/07 05:43:24;;;;;;;53.87;50.07;;;;;;;15.37;100.00;102243.41;1972337;73;33478;-73
2021/09/07 05:48:48;;;;;;;55.00;51.07;;;;;;;15.55;100.00;102246.20;1971763;73;33013;-75
2021/09/07 05:54:14;;;;;;;53.97;50.17;;;;;;;15.68;100.00;102247.00;1971880;73;32930;-77
2021/09/07 05:59:38;;;;;;;55.33;51.43;;;;;;;15.89;100.00;102254.20;1971682;72;32983;-71
2021/09/07 06:05:03;;;;;;;52.67;48.83;;;;;;;15.92;100.00;102258.66;1971695;73;30971;-73
2021/09/07 06:10:28;;;;;;;53.87;49.97;;;;;;;16.24;100.00;102267.20;1971633;73;32992;-76
2021/09/07 06:15:53;;;;;;;55.63;51.60;;;;;;;16.25;100.00;102259.08;1971682;73;32898;-75
2021/09/07 06:21:19;;;;;;;54.80;50.63;;;;;;;16.27;100.00;102259.05;1968691;71;31524;-76
2021/09/07 06:26:44;;;;;;;54.60;50.20;;;;;;;16.29;100.00;102259.61;1971625;73;33027;-77
2021/09/07 06:32:09;;;;;;;57.73;53.30;;;;;;;16.31;100.00;102268.55;1971885;72;32905;-75
2021/09/07 06:37:34;;;;;;;51.10;47.40;;;;;;;16.32;100.00;102286.22;1972306;73;31541;-76
2021/09/07 06:43:00;;;;;;;53.63;49.67;;;;;;;16.42;100.00;102276.92;1971836;73;33029;-78
2021/09/07 06:48:24;;;;;;;55.80;51.70;;;;;;;16.60;100.00;102279.09;1971888;73;33526;-78
2021/09/07 06:53:50;;;;;;;58.50;53.73;;;;;;;16.74;100.00;102276.72;1971675;73;32929;-75
2021/09/07 06:59:14;;;;;;;60.43;55.37;;;;;;;17.07;100.00;102272.81;1971697;73;31082;-77
2021/09/07 07:04:38;;;;;;;67.00;61.10;;;;;;;17.21;100.00;102274.63;1971966;73;33440;-78
2021/09/07 07:10:04;;;;;;;79.67;72.77;;;;;;;17.42;100.00;102273.02;1971748;73;30967;-76
2021/09/07 07:15:29;;;;;;;80.30;73.20;;;;;;;17.65;100.00;102275.90;1971804;72;30963;-80
2021/09/07 07:20:53;;;;;;;82.27;74.57;;;;;;;17.80;100.00;102275.46;1969431;73;31503;-71
2021/09/07 07:26:18;;;;;;;80.87;73.37;;;;;;;17.97;100.00;102280.84;1971936;73;31052;-72
2021/09/07 07:31:43;;;;;;;82.33;74.63;;;;;;;18.26;100.00;102285.55;1971688;73;30948;-80
2021/09/07 07:37:08;;;;;;;77.40;70.40;;;;;;;18.36;100.00;102289.61;1972368;73;31499;-76
2021/09/07 07:42:32;;;;;;;79.07;71.90;;;;;;;18.56;100.00;102282.33;1972410;73;30958;-76
2021/09/07 07:47:57;;;;;;;82.67;74.90;;;;;;;18.77;100.00;102286.50;1971979;73;31041;-76
2021/09/07 07:53:22;;;;;;;85.07;77.30;;;;;;;19.17;100.00;102286.38;1971739;73;30949;-75
2021/09/07 07:58:46;;;;;;;84.83;77.03;;;;;;;19.51;100.00;102282.69;1971910;73;32974;-76
2021/09/07 08:04:11;;;;;;;84.83;76.77;;;;;;;19.71;100.00;102284.29;1971821;73;30989;-78
2021/09/07 08:09:36;;;;;;;85.77;78.13;;;;;;;20.03;100.00;102276.28;1972348;73;33523;-75
2021/09/07 08:15:01;;;;;;;83.30;76.00;;;;;;;20.25;100.00;102276.94;1971711;73;33001;-76
2021/09/07 08:20:26;;;;;;;79.80;72.77;;;;;;;20.45;100.00;102276.53;1971932;73;31514;-76
2021/09/07 08:25:51;;;;;;;77.17;70.47;;;;;;;20.70;100.00;102263.23;1971911;72;31453;-76
2021/09/07 08:31:15;;;;;;;76.17;69.17;;;;;;;20.81;100.00;102266.05;1971716;73;31019;-78
2021/09/07 08:36:40;;;;;;;72.37;66.07;;;;;;;21.01;100.00;102265.30;1971965;73;31453;-76
2021/09/07 08:42:07;;;;;;;73.40;67.10;;;;;;;21.22;100.00;102260.20;1971947;73;31439;-76
2021/09/07 08:47:33;;;;;;;67.87;62.33;;;;;;;21.32;100.00;102258.53;1972170;73;31138;-76
2021/09/07 08:52:59;;;;;;;67.40;61.53;;;;;;;21.49;100.00;102251.30;1972369;73;30956;-76
2021/09/07 08:58:24;;;;;;;62.73;57.53;;;;;;;21.62;100.00;102244.13;1972429;73;31519;-75
2021/09/07 09:03:51;;;;;;;61.92;56.45;;;;;;;21.80;100.00;102235.13;1971809;73;30935;-76
2021/09/07 09:09:21;;;;;;;58.57;53.93;;;;;;;21.94;100.00;102237.88;1971812;73;30944;-79
2021/09/07 09:14:49;;;;;;;56.10;51.50;;;;;;;21.97;100.00;102235.80;1971725;73;30956;-78
2021/09/07 09:20:24;;;;;;;55.63;51.35;;;;;;;22.05;100.00;102228.74;1971921;73;31100;-78
2021/09/07 09:25:49;;;;;;;55.70;51.80;;;;;;;22.02;100.00;102230.83;1971790;73;30956;-78
2021/09/07 09:31:16;;;;;;;48.55;45.00;;;;;;;22.44;100.00;102220.72;1972427;73;30963;-76
2021/09/07 09:39:46;;;;;;;49.77;46.28;;;;;;;22.59;100.00;102225.88;2061633;69;30568;-75
2021/09/07 09:42:23;;;;;;;51.98;48.20;;;;;;;22.61;100.00;102223.55;1950894;73;24119;-76
2021/09/07 09:47:52;;;;;;;55.17;51.18;;;;;;;22.59;100.00;102221.62;1971760;73;30945;-78
2021/09/07 09:53:14;;;;;;;42.30;39.20;;;;;;;22.68;100.00;102223.04;1971709;73;31038;-74
2021/09/07 09:58:39;;;;;;;51.33;47.70;;;;;;;22.91;100.00;102226.56;1971863;73;31452;-79
2021/09/07 10:04:05;;;;;;;51.37;48.17;;;;;;;22.60;100.00;102223.30;1971908;73;31026;-75
2021/09/07 10:09:30;;;;;;;48.23;45.15;;;;;;;22.90;100.00;102219.22;1971817;73;31021;-71
2021/09/07 10:15:19;;;;;;;49.30;45.83;;;;;;;23.28;100.00;102217.88;1971871;73;30958;-77
2021/09/07 10:20:51;;;;;;;48.33;45.28;;;;;;;23.02;100.00;102219.36;1971969;73;30970;-69
2021/09/07 10:26:54;;;;;;;45.35;42.25;;;;;;;23.33;100.00;102209.19;1971771;73;30959;-71
2021/09/07 10:32:40;;;;;;;47.38;44.10;;;;;;;23.18;100.00;102194.16;1971921;73;31495;-71
2021/09/07 10:38:13;;;;;;;49.48;45.98;;;;;;;22.69;100.00;102183.66;1971867;73;30968;-72
2021/09/07 10:43:57;;;;;;;46.35;43.15;;;;;;;23.21;100.00;102175.87;1971747;73;31065;-79
2021/09/07 10:49:53;;;;;;;47.75;44.40;;;;;;;22.74;100.00;102167.08;1971725;73;31062;-72
2021/09/07 10:55:29;;;;;;;44.05;41.25;;;;;;;22.74;100.00;102167.08;1971845;73;31041;-72
2021/09/07 11:00:54;;;;;;;46.68;43.68;;;;;;;22.73;100.00;102154.91;1971672;73;31054;-70
2021/09/07 11:06:41;;;;;;;46.15;43.13;;;;;;;22.60;100.00;102145.98;1971953;73;31022;-71
2021/09/07 11:12:51;;;;;;;44.08;41.18;;;;;;;22.71;100.00;102140.84;1972395;73;31598;-78
2021/09/07 11:18:20;;;;;;;43.15;40.33;;;;;;;22.84;100.00;102132.73;1972217;73;30969;-78
2021/09/07 11:23:46;;;;;;;42.10;39.50;;;;;;;23.41;100.00;102121.23;1972201;73;30951;-78
2021/09/07 11:29:13;;;;;;;39.83;37.23;;;;;;;24.02;100.00;102108.94;1972412;73;31422;-78
2021/09/07 11:34:37;;;;;;;38.75;36.40;;;;;;;23.10;100.00;102112.23;1972127;73;30953;-69
2021/09/07 11:40:17;;;;;;;37.65;35.45;;;;;;;23.75;100.00;102103.79;1972071;73;31034;-81
2021/09/07 11:45:43;;;;;;;35.25;32.95;;;;;;;24.08;100.00;102090.53;1971890;73;30944;-68
2021/09/07 11:51:09;;;;;;;34.33;32.13;;;;;;;24.19;100.00;102087.53;1971976;73;31426;-71
2021/09/07 11:56:36;;;;;;;32.38;30.52;;;;;;;24.63;100.00;102074.57;1972276;73;31029;-78
2021/09/07 12:02:11;;;;;;;32.63;30.62;;;;;;;24.20;100.00;102074.17;1972342;73;31493;-78
2021/09/07 12:07:54;;;;;;;35.95;33.65;;;;;;;24.62;100.00;102059.28;1972000;73;30980;-81
2021/09/07 12:13:23;;;;;;;42.75;40.17;;;;;;;23.56;100.00;102054.63;1972161;73;31049;-78
2021/09/07 12:18:50;;;;;;;37.55;35.45;;;;;;;24.65;100.00;102050.05;1972376;73;31434;-78
2021/09/07 12:24:19;;;;;;;29.80;28.10;;;;;;;25.02;100.00;102045.30;1971999;73;31407;-76
2021/09/07 12:29:43;;;;;;;31.33;29.55;;;;;;;24.54;100.00;102037.48;1971827;73;30936;-79
2021/09/07 12:35:08;;;;;;;32.42;30.37;;;;;;;25.02;100.00;102023.97;1971819;72;31018;-79
2021/09/07 12:40:33;;;;;;;33.10;30.97;;;;;;;24.68;100.00;102021.78;1972029;73;31493;-75
2021/09/07 12:46:07;;;;;;;29.82;28.12;;;;;;;24.57;100.00;102021.98;1971970;73;31549;-77
2021/09/07 12:51:33;;;;;;;28.62;26.82;;;;;;;25.24;100.00;102005.00;1971752;73;30978;-68
2021/09/07 12:56:58;;;;;;;29.07;27.37;;;;;;;24.91;100.00;101998.84;1971774;73;30962;-76
2021/09/07 13:02:22;;;;;;;27.85;26.15;;;;;;;25.27;100.00;101990.89;1971666;73;30972;-69
2021/09/07 13:07:47;;;;;;;28.45;26.65;;;;;;;25.69;100.00;101984.30;1971917;73;31460;-75
2021/09/07 13:13:18;;;;;;;28.73;27.00;;;;;;;25.02;100.00;101987.00;1971924;73;32384;-74
2021/09/07 13:18:47;;;;;;;30.45;28.80;;;;;;;24.81;100.00;101983.66;1971933;73;31102;-74
2021/09/07 13:24:10;;;;;;;25.97;24.32;;;;;;;25.45;100.00;101982.09;1971709;72;31049;-72
2021/09/07 13:29:34;;;;;;;28.00;26.20;;;;;;;25.08;100.00;101977.03;1971894;73;32458;-74
2021/09/07 13:34:59;;;;;;;27.35;25.65;;;;;;;25.10;100.00;101965.55;1971923;73;31441;-71
2021/09/07 13:40:26;;;;;;;23.30;21.95;;;;;;;25.56;100.00;101956.23;1971852;73;32459;-72
2021/09/07 13:45:51;;;;;;;26.55;24.92;;;;;;;24.85;100.00;101963.33;1971842;73;30942;-70
2021/09/07 13:51:16;;;;;;;25.82;24.07;;;;;;;25.67;100.00;101941.13;1971993;73;31612;-74
2021/09/07 13:56:41;;;;;;;25.77;24.18;;;;;;;25.24;100.00;101931.89;1971758;73;30983;-74
2021/09/07 14:02:05;;;;;;;24.18;22.80;;;;;;;24.81;100.00;101927.41;1971850;73;31543;-68
2021/09/07 14:07:30;;;;;;;24.92;23.50;;;;;;;25.72;100.00;101913.00;1971865;73;31075;-68
2021/09/07 14:13:01;;;;;;;24.40;22.90;;;;;;;24.89;100.00;101917.95;1971748;73;31055;-68
2021/09/07 14:18:29;;;;;;;24.80;23.22;;;;;;;24.94;100.00;101911.41;1971885;73;31065;-68
2021/09/07 14:23:52;;;;;;;24.72;23.30;;;;;;;24.38;100.00;101907.51;1971694;73;31022;-70
2021/09/07 14:29:20;;;;;;;19.02;17.92;;;;;;;24.78;100.00;101899.67;1971904;73;31572;-72
2021/09/07 14:34:47;;;;;;;20.90;19.70;;;;;;;25.41;100.00;101884.42;1971701;73;31943;-73
2021/09/07 14:40:18;;;;;;;16.07;15.18;;;;;;;25.19;100.00;101885.20;1971803;73;31685;-70
2021/09/07 14:45:43;;;;;;;19.23;18.12;;;;;;;25.14;100.00;101884.03;1971966;73;31546;-77
2021/09/07 14:51:11;;;;;;;21.20;19.37;;;;;;;25.85;100.00;101876.17;1971883;73;32391;-70
2021/09/07 14:56:36;;;;;;;17.80;16.70;;;;;;;25.08;100.00;101871.23;1971951;73;31553;-72
2021/09/07 15:02:00;;;;;;;17.45;16.32;;;;;;;25.77;100.00;101863.77;1971955;73;31959;-73
2021/09/07 15:07:28;;;;;;;17.87;16.60;;;;;;;26.38;100.00;101854.02;1971780;73;30985;-67
2021/09/07 15:12:52;;;;;;;15.45;14.45;;;;;;;25.64;100.00;101860.75;1971677;73;32029;-69
2021/09/07 15:18:17;;;;;;;15.75;14.78;;;;;;;25.80;100.00;101850.84;1971712;73;32052;-75
2021/09/07 15:23:41;;;;;;;15.95;14.90;;;;;;;26.09;100.00;101842.47;1971835;73;32513;-67
2021/09/07 15:29:06;;;;;;;16.82;15.90;;;;;;;25.65;100.00;101841.07;1971957;72;31142;-73
2021/09/07 15:34:51;;;;;;;17.48;16.37;;;;;;;25.29;100.00;101827.80;2016194;71;31454;-75
2021/09/07 15:40:16;;;;;;;19.55;18.37;;;;;;;24.69;100.00;101833.64;1971828;73;30996;-71
2021/09/07 15:45:40;;;;;;;21.30;19.95;;;;;;;24.46;100.00;101827.03;1971742;73;31044;-73
2021/09/07 15:51:07;;;;;;;18.10;16.90;;;;;;;24.77;100.00;101815.63;1971720;73;31143;-74
2021/09/07 15:56:32;;;;;;;18.15;17.15;;;;;;;25.07;100.00;101814.16;1971960;73;30965;-73
2021/09/07 16:01:57;;;;;;;19.40;18.10;;;;;;;24.51;100.00;101819.45;1971828;73;30980;-73
2021/09/07 16:07:22;;;;;;;19.60;18.40;;;;;;;24.89;100.00;101809.94;1971712;73;30994;-72
2021/09/07 16:12:47;;;;;;;19.75;18.60;;;;;;;24.88;100.00;101813.96;1971803;73;31527;-67
2021/09/07 16:18:12;;;;;;;18.80;17.75;;;;;;;24.51;100.00;101810.92;1971908;73;31578;-73
2021/09/07 16:23:36;;;;;;;15.78;14.75;;;;;;;24.68;100.00;101802.97;1971944;73;31572;-67
2021/09/07 16:29:01;;;;;;;15.23;14.43;;;;;;;25.26;100.00;101798.66;1971846;73;31540;-74
2021/09/07 16:34:32;;;;;;;16.27;15.38;;;;;;;25.64;100.00;101793.88;1971782;73;31064;-68
2021/09/07 16:39:57;;;;;;;14.93;13.90;;;;;;;25.57;100.00;101785.74;1971989;73;31067;-69
2021/09/07 16:45:21;;;;;;;16.40;15.20;;;;;;;25.50;100.00;101776.37;1971835;73;31046;-67
2021/09/07 16:50:46;;;;;;;14.95;14.00;;;;;;;25.55;100.00;101774.72;1971690;73;31931;-68
2021/09/07 16:56:11;;;;;;;13.30;12.50;;;;;;;25.76;100.00;101761.66;1971849;73;30976;-72
2021/09/07 17:01:35;;;;;;;16.20;15.18;;;;;;;25.63;100.00;101765.17;1959478;72;31988;-70
2021/09/07 17:07:00;;;;;;;14.70;13.55;;;;;;;25.35;100.00;101755.25;1971837;73;32005;-72
2021/09/07 17:12:25;;;;;;;14.15;13.38;;;;;;;25.47;100.00;101754.94;1971796;73;31950;-71
2021/09/07 17:17:52;;;;;;;13.68;12.80;;;;;;;25.53;100.00;101757.76;1971766;73;32035;-72
2021/09/07 17:23:17;;;;;;;13.10;12.40;;;;;;;25.99;100.00;101759.00;1936917;74;32012;-70
2021/09/07 17:28:42;;;;;;;13.13;12.33;;;;;;;25.81;100.00;101764.23;1971985;73;31550;-69
2021/09/07 17:34:19;;;;;;;13.85;13.10;;;;;;;25.58;100.00;101760.38;1971961;73;31566;-69
2021/09/07 17:45:20;;;;;;;14.20;13.20;;;;;;;25.24;100.00;101753.30;1971711;73;32031;-69
2021/09/07 17:50:46;;;;;;;13.68;12.78;;;;;;;25.22;100.00;101748.56;1971736;73;30941;-69
2021/09/07 17:56:11;;;;;;;13.25;12.55;;;;;;;25.14;100.00;101749.55;1971863;73;32053;-69
2021/09/07 18:01:36;;;;;;;14.65;13.65;;;;;;;25.14;100.00;101754.64;1971992;73;31093;-71
2021/09/07 18:07:02;;;;;;;14.35;13.25;;;;;;;24.96;100.00;101758.98;1972148;73;31081;-72
2021/09/07 18:12:26;;;;;;;14.70;13.80;;;;;;;24.43;100.00;101759.55;1971987;73;30970;-69
2021/09/07 18:17:51;;;;;;;16.20;15.30;;;;;;;24.11;100.00;101761.09;1971875;73;31084;-69
2021/09/07 18:23:19;;;;;;;16.75;15.93;;;;;;;23.78;100.00;101765.45;1937003;74;32028;-72
2021/09/07 18:28:42;;;;;;;17.45;16.45;;;;;;;23.61;100.00;101771.34;1972134;73;31463;-71
2021/09/07 18:34:08;;;;;;;18.77;17.75;;;;;;;23.39;100.00;101760.61;1971927;73;31117;-72
2021/09/07 18:39:33;;;;;;;20.02;18.82;;;;;;;23.29;100.00;101759.63;1971878;73;31106;-72
2021/09/07 18:44:59;;;;;;;24.50;22.67;;;;;;;23.14;100.00;101758.87;1971871;73;30962;-71
2021/09/07 18:50:24;;;;;;;26.42;24.63;;;;;;;22.99;100.00;101759.50;1971841;73;31030;-72
2021/09/07 18:55:48;;;;;;;25.95;24.00;;;;;;;22.82;100.00;101769.57;1971765;73;30947;-72
2021/09/07 19:01:13;;;;;;;27.13;25.12;;;;;;;23.00;100.00;101772.50;1971787;72;31036;-73
2021/09/07 19:06:37;;;;;;;28.80;26.77;;;;;;;22.76;100.00;101780.30;1971879;73;31012;-73
2021/09/07 19:12:02;;;;;;;28.25;26.35;;;;;;;22.59;100.00;101782.61;1971922;73;31417;-73
2021/09/07 19:17:26;;;;;;;29.37;27.27;;;;;;;22.48;100.00;101780.54;1971893;73;31487;-69
2021/09/07 19:22:52;;;;;;;29.80;27.52;;;;;;;22.02;100.00;101782.89;1971625;73;31041;-78
2021/09/07 19:28:17;;;;;;;28.07;26.05;;;;;;;21.87;100.00;101784.82;1972040;73;31440;-75
2021/09/07 19:33:47;;;;;;;25.05;23.35;;;;;;;21.76;100.00;101785.80;1972013;73;31505;-70
2021/09/07 19:39:12;;;;;;;27.50;25.50;;;;;;;21.51;100.00;101776.81;1971773;73;31033;-72
2021/09/07 19:44:37;;;;;;;27.22;25.15;;;;;;;21.32;100.00;101787.90;1972061;73;31600;-72
2021/09/07 19:50:01;;;;;;;27.82;26.02;;;;;;;21.24;100.00;101787.34;1972013;73;31510;-74
2021/09/07 19:55:28;;;;;;;26.40;24.50;;;;;;;21.05;100.00;101781.77;1971730;73;31039;-71
2021/09/07 20:00:52;;;;;;;27.17;25.10;;;;;;;20.93;100.00;101775.36;1971933;73;31467;-71
2021/09/07 20:06:19;;;;;;;26.37;24.55;;;;;;;20.83;100.00;101773.72;1971751;73;31137;-71
2021/09/07 20:11:43;;;;;;;28.23;26.10;;;;;;;20.71;100.00;101773.52;1971845;73;31042;-74
2021/09/07 20:17:08;;;;;;;28.70;26.60;;;;;;;20.49;100.00;101774.27;1971725;73;31005;-70
2021/09/07 20:22:38;;;;;;;29.03;26.90;;;;;;;20.45;100.00;101779.14;1948567;73;31521;-74
2021/09/07 20:28:10;;;;;;;29.42;27.20;;;;;;;20.28;100.00;101781.88;1971941;73;31002;-70
2021/09/07 20:33:36;;;;;;;29.83;27.37;;;;;;;20.36;100.00;101779.72;1971967;73;31130;-71
2021/09/07 20:39:02;;;;;;;32.13;29.63;;;;;;;20.21;100.00;101778.72;1971734;73;31055;-72
2021/09/07 20:44:26;;;;;;;31.87;29.40;;;;;;;19.97;100.00;101776.91;1972084;73;31451;-70
2021/09/07 20:49:51;;;;;;;33.83;31.03;;;;;;;19.94;100.00;101776.13;1972034;73;31484;-69
2021/09/07 20:55:15;;;;;;;35.70;33.00;;;;;;;20.00;100.00;101767.79;1972016;73;31461;-71
2021/09/07 21:00:40;;;;;;;34.37;31.87;;;;;;;19.97;100.00;101761.41;1971843;73;31468;-72
2021/09/07 21:06:05;;;;;;;37.13;34.23;;;;;;;19.75;100.00;101766.54;1971946;73;30920;-72
2021/09/07 21:11:30;;;;;;;37.47;34.47;;;;;;;19.68;100.00;101759.71;1972007;73;31049;-70
2021/09/07 21:16:54;;;;;;;38.97;35.87;;;;;;;19.75;100.00;101756.67;1971915;73;31423;-74
2021/09/07 21:22:18;;;;;;;41.47;38.20;;;;;;;19.64;100.00;101748.23;1952587;73;31048;-75
2021/09/07 21:28:02;;;;;;;43.07;39.53;;;;;;;19.59;100.00;101756.02;2015910;71;30951;-72
2021/09/07 21:33:27;;;;;;;43.17;39.67;;;;;;;19.44;100.00;101760.91;1971767;72;31013;-71
2021/09/07 21:38:51;;;;;;;45.10;41.60;;;;;;;19.38;100.00;101752.89;1971871;73;31040;-71
2021/09/07 21:44:19;;;;;;;47.73;44.17;;;;;;;19.45;100.00;101758.34;1971681;73;31114;-74
2021/09/07 21:49:43;;;;;;;48.87;45.13;;;;;;;19.29;100.00;101760.45;1971863;73;33556;-75
2021/09/07 21:55:27;;;;;;;50.37;46.30;;;;;;;19.29;100.00;101759.05;2015889;71;30877;-72
2021/09/07 22:01:11;;;;;;;48.80;44.93;;;;;;;19.32;100.00;101762.62;2015914;70;31567;-75
2021/09/07 22:06:36;;;;;;;50.07;46.40;;;;;;;19.12;100.00;101751.89;1971694;73;31017;-73
2021/09/07 22:12:00;;;;;;;48.33;44.70;;;;;;;19.15;100.00;101756.30;1971895;73;30968;-72
2021/09/07 22:17:24;;;;;;;50.57;46.73;;;;;;;18.95;100.00;101752.60;1971868;73;31049;-73
2021/09/07 22:22:49;;;;;;;50.30;46.10;;;;;;;18.89;100.00;101748.23;1960832;71;30968;-70
2021/09/07 22:28:12;;;;;;;51.10;47.27;;;;;;;18.80;100.00;101750.98;1971692;73;33399;-69
2021/09/07 22:33:58;;;;;;;50.80;47.10;;;;;;;18.76;100.00;101751.36;2007285;70;31337;-72
2021/09/07 22:39:22;;;;;;;50.33;46.43;;;;;;;18.69;100.00;101745.35;1971660;73;30948;-72
2021/09/07 22:44:47;;;;;;;51.43;47.50;;;;;;;18.75;100.00;101734.78;1971738;73;31094;-72
2021/09/07 22:50:13;;;;;;;52.00;48.10;;;;;;;18.55;100.00;101740.34;1971698;73;30960;-71
2021/09/07 22:55:38;;;;;;;52.73;48.50;;;;;;;18.45;100.00;101735.73;1971925;73;31071;-71
2021/09/07 23:01:03;;;;;;;52.30;47.97;;;;;;;18.36;100.00;101736.23;1971854;73;33434;-71
2021/09/07 23:06:27;;;;;;;53.77;49.57;;;;;;;18.25;100.00;101726.94;1971869;73;31504;-71
2021/09/07 23:11:52;;;;;;;54.20;50.00;;;;;;;18.23;100.00;101721.62;1971980;73;30937;-70
2021/09/07 23:17:16;;;;;;;54.70;50.43;;;;;;;18.10;100.00;101716.84;1971724;73;31017;-70
2021/09/07 23:22:41;;;;;;;56.07;51.47;;;;;;;18.17;100.00;101720.08;1971788;73;31461;-70
2021/09/07 23:28:06;;;;;;;54.13;49.87;;;;;;;17.82;100.00;101723.08;1971933;73;31507;-72
2021/09/07 23:33:31;;;;;;;56.47;51.83;;;;;;;17.87;100.00;101724.39;1971680;73;31050;-71
2021/09/07 23:38:58;;;;;;;57.67;53.03;;;;;;;17.87;100.00;101717.36;1971747;73;31052;-70
2021/09/07 23:44:23;;;;;;;57.50;52.73;;;;;;;18.00;100.00;101713.70;1971825;73;33584;-72
2021/09/07 23:49:47;;;;;;;56.30;51.37;;;;;;;18.06;100.00;101713.84;1971655;73;30963;-70
2021/09/07 23:55:13;;;;;;;58.90;53.60;;;;;;;17.90;100.00;101714.48;1971662;73;30998;-72
